Time;durP1;ratioP1;P1;durP2;ratioP2;P2;SDS_P1;SDS_P2;PMS_P1;PMS_P2;Temp;Humidity;BMP_temperature;BMP_pressure;BME280_temperature;BME280_humidity;BME280_pressure;Samples;Min_cycle;Max_cycle;Signal;HPM_P1;HPM_P2
2022/07/03 00:01:53;;;;;;;11.75;3.83;;;25.50;99.90;;;;;;4956503;28;20089;-45
2022/07/03 00:04:20;;;;;;;18.63;3.90;;;25.50;99.90;;;;;;4954924;29;20516;-46
2022/07/03 00:06:46;;;;;;;14.70;4.15;;;25.50;99.90;;;;;;4956144;28;20405;-45
2022/07/03 00:09:12;;;;;;;17.30;4.55;;;25.50;99.90;;;;;;4956185;28;20454;-45
2022/07/03 00:11:38;;;;;;;22.02;4.55;;;25.50;99.90;;;;;;4956045;28;20466;-46
2022/07/03 00:14:04;;;;;;;20.92;4.95;;;25.50;99.90;;;;;;4956261;28;20035;-45
2022/07/03 00:16:30;;;;;;;19.67;3.60;;;25.50;99.90;;;;;;4955922;29;20429;-45
2022/07/03 00:18:56;;;;;;;14.25;3.72;;;25.50;99.90;;;;;;4954613;29;20122;-46
2022/07/03 00:21:29;;;;;;;19.50;4.45;;;25.50;99.90;;;;;;4955999;28;20031;-45
2022/07/03 00:24:03;;;;;;;16.73;5.18;;;25.50;99.90;;;;;;4955829;28;20031;-45
2022/07/03 00:26:34;;;;;;;24.08;4.85;;;25.50;99.90;;;;;;4955660;28;20027;-45
2022/07/03 00:29:01;;;;;;;14.75;4.55;;;25.50;99.90;;;;;;4955539;28;20115;-45
2022/07/03 00:31:30;;;;;;;23.92;5.30;;;25.50;99.90;;;;;;4955626;28;20019;-45
2022/07/03 00:33:58;;;;;;;13.63;4.35;;;25.50;99.90;;;;;;4955585;28;20035;-45
2022/07/03 00:36:28;;;;;;;17.63;4.45;;;25.50;99.90;;;;;;4954328;29;20062;-46
2022/07/03 00:38:54;;;;;;;13.27;4.13;;;25.50;99.90;;;;;;4955493;28;20039;-45
2022/07/03 00:41:35;;;;;;;21.77;4.13;;;25.50;99.90;;;;;;4955451;28;20030;-45
2022/07/03 00:44:01;;;;;;;19.98;4.00;;;25.50;99.90;;;;;;4955498;28;20058;-45
2022/07/03 00:46:28;;;;;;;21.92;3.45;;;25.50;99.90;;;;;;4955277;28;20073;-45
2022/07/03 00:48:55;;;;;;;10.73;3.65;;;25.50;99.90;;;;;;4955475;28;20038;-46
2022/07/03 00:51:23;;;;;;;15.02;3.65;;;25.50;99.90;;;;;;4955447;28;20019;-45
2022/07/03 00:53:55;;;;;;;14.10;3.92;;;25.50;99.90;;;;;;4955121;28;20030;-45
2022/07/03 00:56:27;;;;;;;13.95;4.15;;;25.60;99.90;;;;;;4955178;28;20121;-45
2022/07/03 00:58:55;;;;;;;20.40;5.15;;;25.50;99.90;;;;;;4955223;28;20102;-45
2022/07/03 01:01:26;;;;;;;15.35;3.80;;;25.50;99.90;;;;;;4955663;28;20051;-45
2022/07/03 01:04:08;;;;;;;14.85;4.32;;;25.50;99.90;;;;;;4955175;28;20031;-45
2022/07/03 01:06:53;;;;;;;17.27;4.50;;;25.50;99.90;;;;;;4954985;28;20027;-45
2022/07/03 01:09:30;;;;;;;13.85;3.75;;;25.50;99.90;;;;;;4954945;28;20030;-44
2022/07/03 01:12:06;;;;;;;8.85;3.72;;;25.50;99.90;;;;;;4955065;28;20031;-46
2022/07/03 01:14:37;;;;;;;19.47;4.43;;;25.50;99.90;;;;;;4954965;28;20035;-46
2022/07/03 01:17:11;;;;;;;14.48;4.00;;;25.50;99.90;;;;;;4954725;29;20023;-46
2022/07/03 01:19:42;;;;;;;16.98;4.15;;;25.50;99.90;;;;;;4955010;28;20044;-46
2022/07/03 01:22:20;;;;;;;16.83;4.47;;;25.50;99.90;;;;;;4955016;28;20397;-46
2022/07/03 01:25:14;;;;;;;17.77;3.75;;;25.50;99.90;;;;;;4954693;29;20171;-46
2022/07/03 01:27:40;;;;;;;16.65;4.35;;;25.50;99.90;;;;;;4954650;28;20062;-46
2022/07/03 01:30:10;;;;;;;14.05;4.60;;;25.50;99.90;;;;;;4954872;29;20054;-46
2022/07/03 01:32:42;;;;;;;25.88;4.05;;;25.60;99.90;;;;;;4954806;28;20023;-45
2022/07/03 01:35:11;;;;;;;23.13;4.45;;;25.50;99.90;;;;;;4954779;28;20035;-46
2022/07/03 01:37:39;;;;;;;16.35;4.25;;;25.50;99.90;;;;;;4954737;28;20019;-45
2022/07/03 01:40:07;;;;;;;20.20;4.65;;;25.50;99.90;;;;;;4954627;28;20023;-45
2022/07/03 01:42:37;;;;;;;14.18;4.90;;;25.50;99.90;;;;;;4954429;28;20027;-45
2022/07/03 01:45:04;;;;;;;16.55;3.88;;;25.50;99.90;;;;;;4954409;28;20077;-45
2022/07/03 01:47:34;;;;;;;18.45;5.15;;;25.50;99.90;;;;;;4954337;28;20522;-46
2022/07/03 01:50:01;;;;;;;15.82;4.38;;;25.50;99.90;;;;;;4954290;28;20086;-46
2022/07/03 01:52:32;;;;;;;17.38;4.38;;;25.50;99.90;;;;;;4954182;28;20521;-45
2022/07/03 01:55:01;;;;;;;15.57;4.18;;;25.50;99.90;;;;;;4954176;28;20043;-45
2022/07/03 01:57:44;;;;;;;21.23;4.75;;;25.50;99.90;;;;;;4954125;28;20102;-45
2022/07/03 02:00:12;;;;;;;15.50;3.90;;;25.50;99.90;;;;;;4954666;28;20075;-45
2022/07/03 02:03:02;;;;;;;14.55;4.45;;;25.50;99.90;;;;;;4954202;28;20035;-44
2022/07/03 02:05:35;;;;;;;17.98;3.90;;;25.50;99.90;;;;;;4953514;29;20085;-46
2022/07/03 02:08:08;;;;;;;17.83;5.25;;;25.40;99.90;;;;;;4954046;29;20178;-46
2022/07/03 02:10:40;;;;;;;18.10;4.05;;;25.40;99.90;;;;;;4953940;28;20027;-45
2022/07/03 02:13:27;;;;;;;16.45;5.15;;;25.50;99.90;;;;;;4953975;28;20368;-46
2022/07/03 02:15:53;;;;;;;;;;;25.40;99.90;;;;;;4954116;28;20042;-45
2022/07/03 02:18:27;;;;;;;20.92;5.53;;;25.40;99.90;;;;;;4953257;28;19906;-46
2022/07/03 02:21:10;;;;;;;14.88;4.55;;;25.40;99.90;;;;;;4953664;28;20162;-45
2022/07/03 02:23:48;;;;;;;17.20;3.88;;;25.40;99.90;;;;;;4953663;28;20057;-46
2022/07/03 02:26:17;;;;;;;19.40;5.00;;;25.40;99.90;;;;;;4953704;28;20027;-45
2022/07/03 02:29:05;;;;;;;16.98;4.18;;;25.40;99.90;;;;;;4953617;28;20059;-46
2022/07/03 02:31:59;;;;;;;12.38;3.90;;;25.40;99.90;;;;;;4953596;28;20023;-45
2022/07/03 02:34:27;;;;;;;12.85;3.88;;;25.40;99.90;;;;;;4953417;28;20042;-46
2022/07/03 02:36:59;;;;;;;18.20;4.38;;;25.40;99.90;;;;;;4952304;29;20051;-46
2022/07/03 02:40:03;;;;;;;16.35;3.95;;;25.40;99.90;;;;;;4953499;28;20031;-45
2022/07/03 02:42:52;;;;;;;20.90;4.35;;;25.40;99.90;;;;;;4942642;29;20378;-46
2022/07/03 02:45:21;;;;;;;21.05;5.45;;;25.40;99.90;;;;;;4952980;29;20053;-46
2022/07/03 02:48:29;;;;;;;22.08;4.00;;;25.40;99.90;;;;;;4952189;29;20051;-46
2022/07/03 02:51:04;;;;;;;20.25;4.85;;;25.30;99.90;;;;;;4953180;28;20036;-45
2022/07/03 02:53:48;;;;;;;16.05;4.22;;;25.30;99.90;;;;;;4953179;28;20031;-46
2022/07/03 02:56:23;;;;;;;16.33;4.10;;;25.20;99.90;;;;;;4953390;28;20465;-45
2022/07/03 03:02:03;;;;;;;14.32;4.35;;;25.30;99.90;;;;;;4951942;29;20051;-41
2022/07/03 03:04:31;;;;;;;14.35;4.07;;;25.30;99.90;;;;;;4953001;28;20051;-41
2022/07/03 03:07:09;;;;;;;19.75;4.40;;;25.30;99.90;;;;;;4953224;28;20069;-41
2022/07/03 03:09:41;;;;;;;16.42;4.63;;;25.30;99.90;;;;;;4953062;28;20037;-42
2022/07/03 03:12:09;;;;;;;19.75;4.70;;;25.30;99.90;;;;;;4953043;28;20403;-41
2022/07/03 03:14:39;;;;;;;14.27;4.50;;;25.30;99.90;;;;;;4953031;28;20533;-41
2022/07/03 03:17:08;;;;;;;16.52;4.40;;;25.30;99.90;;;;;;4953021;28;20516;-41
2022/07/03 03:19:43;;;;;;;21.95;5.03;;;25.30;99.90;;;;;;4953182;28;20373;-41
2022/07/03 03:22:27;;;;;;;20.10;4.93;;;25.30;99.90;;;;;;4953037;28;20037;-41
2022/07/03 03:24:54;;;;;;;18.27;5.35;;;25.30;99.90;;;;;;4952724;29;20035;-41
2022/07/03 03:27:21;;;;;;;21.63;4.85;;;25.30;99.90;;;;;;4952956;28;20381;-41
2022/07/03 03:29:47;;;;;;;26.35;6.55;;;25.30;99.90;;;;;;4956797;28;20031;-41
2022/07/03 03:32:14;;;;;;;16.30;5.47;;;25.30;99.90;;;;;;4956950;29;20019;-41
2022/07/03 03:34:41;;;;;;;17.97;5.27;;;25.30;99.90;;;;;;4956533;28;20023;-41
2022/07/03 03:37:07;;;;;;;17.45;5.63;;;25.30;99.90;;;;;;4956634;29;20389;-41
2022/07/03 03:39:33;;;;;;;23.58;5.80;;;25.30;99.90;;;;;;4956590;28;20493;-43
2022/07/03 03:42:01;;;;;;;19.77;4.95;;;25.30;99.90;;;;;;4956583;29;20455;-41
2022/07/03 03:44:27;;;;;;;16.27;4.88;;;25.30;99.90;;;;;;4956467;28;20039;-41
2022/07/03 03:46:54;;;;;;;26.45;5.70;;;25.20;99.90;;;;;;4956477;28;20027;-43
2022/07/03 03:49:20;;;;;;;18.20;4.85;;;25.20;99.90;;;;;;4956473;28;20457;-41
2022/07/03 03:51:46;;;;;;;22.15;5.45;;;25.20;99.90;;;;;;4956786;28;20035;-43
2022/07/03 03:54:11;;;;;;;14.65;4.80;;;25.20;99.90;;;;;;4956537;28;20015;-42
2022/07/03 03:56:37;;;;;;;23.17;6.97;;;25.10;99.90;;;;;;4956464;28;20105;-42
2022/07/03 03:59:04;;;;;;;19.45;4.65;;;25.10;99.90;;;;;;4956356;28;20023;-42
2022/07/03 04:01:30;;;;;;;24.50;5.32;;;25.10;99.90;;;;;;4955723;29;20050;-42
2022/07/03 04:03:56;;;;;;;21.98;5.70;;;25.10;1.00;;;;;;4956392;28;20035;-42
2022/07/03 04:06:21;;;;;;;19.38;4.90;;;25.10;1.00;;;;;;4956364;28;20075;-42
2022/07/03 04:08:47;;;;;;;24.00;7.60;;;25.00;1.00;;;;;;4956421;28;20035;-42
2022/07/03 04:11:13;;;;;;;19.48;5.72;;;25.00;1.00;;;;;;4956438;28;20033;-42
2022/07/03 04:13:39;;;;;;;20.17;5.00;;;25.00;1.00;;;;;;4956051;28;20031;-42
2022/07/03 04:16:04;;;;;;;16.05;5.82;;;25.00;1.00;;;;;;4955915;28;20075;-41
2022/07/03 04:18:30;;;;;;;19.05;5.80;;;24.90;1.00;;;;;;4955830;28;20031;-41
2022/07/03 04:20:56;;;;;;;28.02;6.78;;;24.80;1.00;;;;;;4955847;28;20023;-42
2022/07/03 04:23:22;;;;;;;25.85;7.80;;;24.80;1.00;;;;;;4955916;29;20035;-42
2022/07/03 04:25:47;;;;;;;20.15;5.38;;;24.80;1.00;;;;;;4956016;28;20023;-42
2022/07/03 04:28:13;;;;;;;21.73;5.97;;;24.70;1.00;;;;;;4955794;28;20047;-42
2022/07/03 04:30:39;;;;;;;27.23;6.40;;;24.70;1.00;;;;;;4955761;28;20059;-42
2022/07/03 04:33:05;;;;;;;32.90;6.10;;;24.70;1.00;;;;;;4955768;28;20023;-42
2022/07/03 04:35:31;;;;;;;17.15;5.50;;;24.70;1.00;;;;;;4955680;28;20063;-42
2022/07/03 04:37:57;;;;;;;15.35;5.78;;;24.70;1.00;;;;;;4955725;28;20027;-42
2022/07/03 04:40:22;;;;;;;23.85;6.85;;;24.70;1.00;;;;;;4954603;28;20027;-42
2022/07/03 04:42:48;;;;;;;23.92;6.35;;;24.70;1.00;;;;;;4955563;29;20087;-42
2022/07/03 04:45:14;;;;;;;31.05;6.82;;;24.70;1.00;;;;;;4955544;29;20393;-42
2022/07/03 04:47:40;;;;;;;23.88;6.43;;;24.70;1.00;;;;;;4955441;28;20397;-42
2022/07/03 04:50:06;;;;;;;26.27;7.03;;;24.70;1.00;;;;;;4955403;28;20031;-42
2022/07/03 04:52:32;;;;;;;24.38;5.97;;;24.70;1.00;;;;;;4955322;28;20031;-42
2022/07/03 04:54:57;;;;;;;19.70;5.05;;;24.70;1.00;;;;;;4955282;29;20434;-42
2022/07/03 04:57:23;;;;;;;17.42;6.22;;;24.70;1.00;;;;;;4955219;29;20027;-41
2022/07/03 04:59:49;;;;;;;22.80;5.88;;;24.70;1.00;;;;;;4955266;28;20079;-42
2022/07/03 05:02:14;;;;;;;21.65;6.13;;;24.70;1.00;;;;;;4955186;29;20038;-42
2022/07/03 05:04:40;;;;;;;20.60;6.78;;;24.70;1.00;;;;;;4955332;29;20046;-42
2022/07/03 05:07:06;;;;;;;23.00;5.97;;;24.70;1.00;;;;;;4955047;29;20046;-42
2022/07/03 05:09:32;;;;;;;20.20;5.53;;;24.70;1.00;;;;;;4955371;28;20035;-42
2022/07/03 05:11:57;;;;;;;16.13;5.22;;;24.70;1.00;;;;;;4954980;28;20019;-42
2022/07/03 05:14:23;;;;;;;22.80;7.57;;;24.70;1.00;;;;;;4954932;29;20494;-42
2022/07/03 05:16:49;;;;;;;18.23;6.22;;;24.70;1.00;;;;;;4955204;28;20481;-43
2022/07/03 05:19:15;;;;;;;19.55;5.93;;;24.70;1.00;;;;;;4954840;28;20461;-42
2022/07/03 05:21:41;;;;;;;23.30;5.95;;;24.80;1.00;;;;;;4954752;28;20164;-42
2022/07/03 05:24:07;;;;;;;22.92;5.10;;;24.70;1.00;;;;;;4954750;28;20039;-42
2022/07/03 05:26:32;;;;;;;14.75;4.88;;;24.80;1.00;;;;;;4953536;29;20102;-41
2022/07/03 05:28:58;;;;;;;21.98;5.90;;;24.80;1.00;;;;;;4954544;28;20122;-41
2022/07/03 05:31:24;;;;;;;25.95;6.07;;;24.80;1.00;;;;;;4954791;28;20024;-42
2022/07/03 05:33:49;;;;;;;20.85;6.22;;;24.80;1.00;;;;;;4953516;29;20110;-42
2022/07/03 05:36:15;;;;;;;27.48;6.28;;;24.90;1.00;;;;;;4954708;29;20034;-42
2022/07/03 05:41:25;;;;;;;28.73;7.05;;;24.90;1.00;;;;;;4954464;29;20544;-42
2022/07/03 05:43:51;;;;;;;17.75;5.45;;;24.90;1.00;;;;;;4954544;28;20035;-42
2022/07/03 05:46:17;;;;;;;16.33;5.50;;;24.90;1.00;;;;;;4954383;29;20027;-42
2022/07/03 05:48:43;;;;;;;24.48;7.28;;;24.90;1.00;;;;;;4954290;28;20563;-42
2022/07/03 05:51:08;;;;;;;25.13;6.07;;;24.90;1.00;;;;;;4954233;28;20035;-42
2022/07/03 05:53:34;;;;;;;22.67;6.68;;;24.90;1.00;;;;;;4954238;28;20027;-43
2022/07/03 05:56:00;;;;;;;27.17;6.90;;;24.90;1.00;;;;;;4954111;28;20046;-42
2022/07/03 05:58:26;;;;;;;26.00;7.72;;;24.90;1.00;;;;;;4954223;28;20028;-42
2022/07/03 06:00:51;;;;;;;26.27;7.70;;;24.90;1.00;;;;;;4954152;28;20409;-42
2022/07/03 06:03:17;;;;;;;21.88;6.45;;;24.90;1.00;;;;;;4952824;29;20031;-42
2022/07/03 06:05:43;;;;;;;17.67;5.50;;;24.90;1.00;;;;;;4953879;29;20366;-42
2022/07/03 06:08:09;;;;;;;19.55;5.72;;;25.00;1.00;;;;;;4953782;28;20023;-42
2022/07/03 06:10:35;;;;;;;20.65;5.85;;;25.00;1.00;;;;;;4954029;28;20477;-42
2022/07/03 06:13:00;;;;;;;19.52;5.93;;;25.00;1.00;;;;;;4953820;28;20389;-42
2022/07/03 06:15:26;;;;;;;24.75;5.70;;;25.00;1.00;;;;;;4953884;28;20031;-42
2022/07/03 06:17:52;;;;;;;19.75;4.68;;;25.10;1.00;;;;;;4953990;28;20061;-42
2022/07/03 06:20:18;;;;;;;26.60;7.30;;;25.10;1.00;;;;;;4953646;28;20063;-42
2022/07/03 06:22:44;;;;;;;17.70;4.88;;;25.10;1.00;;;;;;4953564;29;20099;-42
2022/07/03 06:25:10;;;;;;;22.38;6.25;;;25.20;1.00;;;;;;4953549;28;20039;-42
2022/07/03 06:27:36;;;;;;;24.23;5.60;;;25.20;1.00;;;;;;4953743;28;20090;-42
2022/07/03 06:30:03;;;;;;;18.70;5.07;;;25.20;1.00;;;;;;4953519;28;20074;-42
2022/07/03 06:32:29;;;;;;;23.83;6.18;;;25.20;1.00;;;;;;4953566;28;20027;-42
2022/07/03 06:34:55;;;;;;;21.83;5.85;;;25.20;1.00;;;;;;4953554;29;20031;-42
2022/07/03 06:37:21;;;;;;;21.67;5.72;;;25.20;1.00;;;;;;4953581;29;20031;-42
2022/07/03 06:39:47;;;;;;;25.42;5.47;;;25.20;1.00;;;;;;4953314;29;20490;-42
2022/07/03 06:42:13;;;;;;;29.00;6.88;;;25.20;1.00;;;;;;4953333;28;20027;-42
2022/07/03 06:44:40;;;;;;;17.83;4.80;;;25.20;1.00;;;;;;4953301;28;20118;-42
2022/07/03 06:47:06;;;;;;;18.30;5.55;;;25.10;1.00;;;;;;4953313;28;20041;-42
2022/07/03 06:49:33;;;;;;;20.25;5.28;;;25.20;1.00;;;;;;4953190;28;20106;-43
2022/07/03 06:51:59;;;;;;;25.77;5.93;;;25.20;1.00;;;;;;4953393;28;20015;-42
2022/07/03 06:54:25;;;;;;;20.55;5.10;;;25.20;1.00;;;;;;4952126;29;20040;-42
2022/07/03 06:56:51;;;;;;;23.67;4.88;;;25.20;1.00;;;;;;4953224;28;20035;-42
2022/07/03 06:59:16;;;;;;;20.02;5.43;;;25.30;1.00;;;;;;4953248;28;20469;-41
2022/07/03 07:01:42;;;;;;;21.00;5.97;;;25.30;1.00;;;;;;4953072;28;20437;-42
2022/07/03 07:04:08;;;;;;;22.00;6.65;;;25.30;1.00;;;;;;4952640;28;20067;-42
2022/07/03 07:06:34;;;;;;;21.98;5.75;;;25.40;1.00;;;;;;4953083;28;20046;-42
2022/07/03 07:08:59;;;;;;;24.75;5.85;;;25.40;1.00;;;;;;4953079;28;20031;-43
2022/07/03 07:11:25;;;;;;;23.13;6.03;;;25.50;1.00;;;;;;4953348;28;20094;-43
2022/07/03 07:13:51;;;;;;;16.83;5.40;;;25.50;1.00;;;;;;4951915;29;20397;-42
2022/07/03 07:16:17;;;;;;;21.50;5.22;;;25.60;1.00;;;;;;4952984;28;20122;-42
2022/07/03 07:18:43;;;;;;;18.63;5.30;;;25.60;1.00;;;;;;4953146;28;20030;-42
2022/07/03 07:21:10;;;;;;;22.05;5.88;;;25.60;1.00;;;;;;4952989;29;20078;-42
2022/07/03 07:23:36;;;;;;;22.60;5.82;;;25.70;1.00;;;;;;4952831;28;20452;-42
2022/07/03 07:26:03;;;;;;;27.58;6.47;;;25.70;1.00;;;;;;4952943;28;20101;-43
2022/07/03 07:28:30;;;;;;;15.83;5.27;;;25.70;1.00;;;;;;4952978;28;20024;-42
2022/07/03 07:30:57;;;;;;;26.15;5.20;;;25.70;99.90;;;;;;4953084;28;20110;-42
2022/07/03 07:33:23;;;;;;;17.17;5.30;;;25.70;99.90;;;;;;4953055;28;20032;-43
2022/07/03 07:35:49;;;;;;;16.20;5.30;;;25.70;99.90;;;;;;4952841;28;20027;-43
2022/07/03 07:38:16;;;;;;;27.40;6.63;;;25.70;99.90;;;;;;4953001;28;20118;-43
2022/07/03 07:40:41;;;;;;;18.70;5.60;;;25.70;99.90;;;;;;4952838;28;20023;-42
2022/07/03 07:43:07;;;;;;;23.00;5.82;;;25.70;99.90;;;;;;4952647;28;20388;-42
2022/07/03 07:45:34;;;;;;;17.95;6.00;;;25.70;99.90;;;;;;4952731;29;20046;-42
2022/07/03 07:47:59;;;;;;;20.10;6.18;;;25.70;99.90;;;;;;4952771;28;20098;-43
2022/07/03 07:50:26;;;;;;;29.38;7.32;;;25.70;99.90;;;;;;4952880;28;20573;-42
2022/07/03 07:52:52;;;;;;;24.65;5.90;;;25.70;99.90;;;;;;4952605;28;20082;-42
2022/07/03 07:55:18;;;;;;;20.73;5.13;;;25.70;99.90;;;;;;4952716;28;20027;-42
2022/07/03 07:57:45;;;;;;;16.85;6.35;;;25.80;99.90;;;;;;4952677;28;20035;-42
2022/07/03 08:00:16;;;;;;;27.83;7.03;;;25.80;99.90;;;;;;4952411;28;20051;-42
2022/07/03 08:05:36;;;;;;;30.73;7.78;;;25.70;99.90;;;;;;4952968;29;20520;-41
2022/07/03 08:08:10;;;;;;;25.75;6.90;;;25.80;99.90;;;;;;4952444;28;20031;-42
2022/07/03 08:10:45;;;;;;;22.70;6.85;;;25.80;99.90;;;;;;4952550;28;20026;-42
2022/07/03 08:13:12;;;;;;;21.20;6.03;;;25.80;99.90;;;;;;4952235;28;20023;-42
2022/07/03 08:15:39;;;;;;;20.77;5.30;;;25.80;99.90;;;;;;4953060;28;20456;-42
2022/07/03 08:18:05;;;;;;;18.33;5.80;;;25.70;99.90;;;;;;4954525;29;20508;-42
2022/07/03 08:20:32;;;;;;;26.00;5.72;;;25.70;99.90;;;;;;4955977;28;20385;-43
2022/07/03 08:22:58;;;;;;;21.38;5.38;;;25.70;99.90;;;;;;4955892;28;20141;-42
2022/07/03 08:25:24;;;;;;;27.92;6.15;;;25.70;99.90;;;;;;4955901;28;20162;-42
2022/07/03 08:27:50;;;;;;;21.48;4.63;;;25.70;99.90;;;;;;4955677;28;20027;-42
2022/07/03 08:30:20;;;;;;;18.60;5.07;;;25.70;99.90;;;;;;4955518;28;20036;-42
2022/07/03 08:32:51;;;;;;;23.67;5.10;;;25.70;99.90;;;;;;4955646;28;20047;-42
2022/07/03 08:35:17;;;;;;;26.92;5.18;;;25.70;99.90;;;;;;4955647;28;20078;-42
2022/07/03 08:37:46;;;;;;;17.73;4.53;;;25.80;99.90;;;;;;4955638;28;20038;-42
2022/07/03 08:40:13;;;;;;;29.80;5.93;;;25.80;99.90;;;;;;4955498;28;20110;-42
2022/07/03 08:42:46;;;;;;;17.48;5.43;;;25.90;99.90;;;;;;4955440;28;20023;-42
2022/07/03 08:45:17;;;;;;;20.42;5.78;;;25.90;99.90;;;;;;4955304;28;20035;-42
2022/07/03 08:47:44;;;;;;;23.75;5.55;;;26.00;99.90;;;;;;4955315;28;20184;-42
2022/07/03 08:50:15;;;;;;;26.20;5.97;;;26.00;99.90;;;;;;4955178;28;20028;-42
2022/07/03 08:52:42;;;;;;;21.85;4.95;;;26.00;99.90;;;;;;4955331;28;20039;-43
2022/07/03 08:55:09;;;;;;;19.13;4.83;;;26.00;99.90;;;;;;4955202;28;20034;-43
2022/07/03 08:57:40;;;;;;;20.52;4.93;;;26.10;99.90;;;;;;4955237;28;20336;-42
2022/07/03 09:00:09;;;;;;;23.60;4.75;;;26.10;99.90;;;;;;4954968;28;20430;-42
2022/07/03 09:02:36;;;;;;;21.65;4.97;;;26.10;99.90;;;;;;4955131;28;20035;-43
2022/07/03 09:05:02;;;;;;;26.13;5.25;;;26.10;99.90;;;;;;4955128;28;20482;-42
2022/07/03 09:07:31;;;;;;;24.17;6.45;;;26.20;99.90;;;;;;4954867;29;20038;-42
2022/07/03 09:09:57;;;;;;;18.95;4.60;;;26.20;99.90;;;;;;4954886;28;20034;-43
2022/07/03 09:12:23;;;;;;;20.30;6.05;;;26.30;99.90;;;;;;4954928;29;20049;-42
2022/07/03 09:14:49;;;;;;;13.65;5.13;;;26.30;99.90;;;;;;4954943;28;20118;-42
2022/07/03 09:17:15;;;;;;;23.95;5.07;;;26.30;99.90;;;;;;4954814;29;20110;-42
2022/07/03 09:19:47;;;;;;;15.55;4.90;;;26.30;99.90;;;;;;4954698;28;20505;-42
2022/07/03 09:22:21;;;;;;;22.48;5.70;;;26.20;99.90;;;;;;4954717;29;20031;-42
2022/07/03 09:24:52;;;;;;;20.73;5.05;;;26.20;99.90;;;;;;4954611;28;20036;-42
2022/07/03 09:27:20;;;;;;;26.50;5.30;;;26.20;99.90;;;;;;4954275;28;20796;-42
2022/07/03 09:29:59;;;;;;;21.33;5.35;;;26.10;99.90;;;;;;4953118;29;20034;-41
2022/07/03 09:32:25;;;;;;;14.50;4.60;;;26.20;99.90;;;;;;4954410;28;20058;-42
2022/07/03 09:35:14;;;;;;;26.60;6.35;;;26.20;99.90;;;;;;4954324;28;20020;-42
2022/07/03 09:37:41;;;;;;;29.25;10.57;;;26.20;99.90;;;;;;4954452;28;20118;-42
2022/07/03 09:40:07;;;;;;;28.10;11.18;;;26.20;99.90;;;;;;4953267;29;20082;-42
2022/07/03 09:42:33;;;;;;;34.38;17.35;;;26.20;99.90;;;;;;4954672;28;20035;-42
2022/07/03 09:44:58;;;;;;;29.02;10.50;;;26.20;99.90;;;;;;4954205;29;20050;-42
2022/07/03 09:47:25;;;;;;;27.90;8.85;;;26.20;99.90;;;;;;4952878;29;20027;-42
2022/07/03 09:50:04;;;;;;;27.17;8.77;;;26.30;99.90;;;;;;4954159;28;20023;-42
2022/07/03 09:52:50;;;;;;;29.98;12.35;;;26.30;99.90;;;;;;4954226;28;20030;-42
2022/07/03 09:55:20;;;;;;;33.72;13.30;;;26.30;99.90;;;;;;4952687;29;20510;-42
2022/07/03 09:57:52;;;;;;;37.83;13.40;;;26.30;99.90;;;;;;4954091;28;20102;-42
2022/07/03 10:00:26;;;;;;;25.23;10.82;;;26.30;99.90;;;;;;4953914;28;20282;-42
2022/07/03 10:02:55;;;;;;;38.08;15.57;;;26.40;99.90;;;;;;4953897;28;20031;-42
2022/07/03 10:05:22;;;;;;;29.88;12.18;;;26.40;99.90;;;;;;4953880;28;20062;-42
2022/07/03 10:08:01;;;;;;;25.38;9.18;;;26.30;99.90;;;;;;4953782;29;20043;-42
2022/07/03 10:10:38;;;;;;;27.92;12.90;;;26.30;99.90;;;;;;4953634;28;20023;-42
2022/07/03 10:13:04;;;;;;;26.90;14.52;;;26.20;99.90;;;;;;4953851;28;20031;-42
2022/07/03 10:15:32;;;;;;;27.90;11.13;;;26.30;99.90;;;;;;4953552;28;20023;-42
2022/07/03 10:17:59;;;;;;;26.60;8.45;;;26.30;99.90;;;;;;4953638;28;20027;-42
2022/07/03 10:20:28;;;;;;;25.42;7.78;;;26.40;99.90;;;;;;4952214;29;20123;-42
2022/07/03 10:22:55;;;;;;;21.30;8.30;;;26.30;99.90;;;;;;4953677;28;20059;-42
2022/07/03 10:25:21;;;;;;;23.53;7.47;;;26.40;99.90;;;;;;4953478;28;20085;-42
2022/07/03 10:27:48;;;;;;;25.52;8.68;;;26.40;99.90;;;;;;4953530;28;20029;-42
2022/07/03 10:30:16;;;;;;;18.90;6.40;;;26.40;99.90;;;;;;4953414;28;20071;-42
2022/07/03 10:32:44;;;;;;;22.40;7.78;;;26.40;99.90;;;;;;4953343;28;20027;-42
2022/07/03 10:35:15;;;;;;;16.73;6.65;;;26.40;99.90;;;;;;4953269;28;20027;-42
2022/07/03 10:37:52;;;;;;;21.17;6.88;;;26.40;99.90;;;;;;4952676;28;20119;-42
2022/07/03 10:46:26;;;;;;;26.60;5.75;;;26.50;99.90;;;;;;4953493;29;20085;-43
2022/07/03 10:49:08;;;;;;;18.75;6.97;;;26.50;99.90;;;;;;4953125;28;20031;-42
2022/07/03 10:51:57;;;;;;;29.67;6.00;;;26.50;99.90;;;;;;4952135;29;20478;-42
2022/07/03 10:54:24;;;;;;;20.90;5.45;;;26.50;99.90;;;;;;4953128;28;20023;-42
2022/07/03 10:56:59;;;;;;;22.60;12.00;;;26.50;99.90;;;;;;4953226;28;20031;-44
2022/07/03 10:59:45;;;;;;;27.70;10.77;;;26.60;99.90;;;;;;4953005;28;20035;-43
2022/07/03 11:02:18;;;;;;;26.45;10.82;;;26.60;99.90;;;;;;4952921;28;20045;-42
2022/07/03 11:04:57;;;;;;;18.42;7.28;;;26.70;99.90;;;;;;4953002;28;20043;-43
2022/07/03 11:07:23;;;;;;;28.70;7.50;;;26.70;99.90;;;;;;4953329;28;20549;-42
2022/07/03 11:10:14;;;;;;;23.43;6.93;;;26.70;99.90;;;;;;4953080;28;20050;-43
2022/07/03 11:12:58;;;;;;;26.48;8.65;;;26.70;99.90;;;;;;4953232;29;20278;-42
2022/07/03 11:15:46;;;;;;;28.52;12.20;;;26.80;99.90;;;;;;4952925;29;20042;-42
2022/07/03 11:18:33;;;;;;;23.77;8.50;;;26.80;99.90;;;;;;4951585;29;20027;-42
2022/07/03 11:21:15;;;;;;;32.70;11.43;;;26.80;99.90;;;;;;4953264;28;20220;-42
2022/07/03 11:23:59;;;;;;;34.88;13.82;;;26.80;99.90;;;;;;4952781;28;20039;-42
2022/07/03 11:26:25;;;;;;;26.85;9.15;;;26.80;99.90;;;;;;4952866;29;20109;-42
2022/07/03 11:28:52;;;;;;;19.27;8.18;;;26.80;99.90;;;;;;4952988;28;20027;-43
2022/07/03 11:31:19;;;;;;;15.98;7.05;;;26.80;99.90;;;;;;4952862;28;20035;-42
2022/07/03 11:33:54;;;;;;;23.83;8.95;;;26.80;99.90;;;;;;4952914;28;20043;-43
2022/07/03 11:36:26;;;;;;;23.88;6.45;;;26.80;99.90;;;;;;4953126;28;20023;-43
2022/07/03 11:38:55;;;;;;;27.52;8.88;;;26.90;99.90;;;;;;4952814;28;20028;-42
2022/07/03 11:41:22;;;;;;;29.98;12.07;;;26.80;99.90;;;;;;4952807;29;20050;-43
2022/07/03 11:43:51;;;;;;;24.23;8.50;;;26.80;99.90;;;;;;4952860;28;20469;-48
2022/07/03 11:46:19;;;;;;;31.40;11.60;;;26.80;99.90;;;;;;4952801;28;20035;-42
2022/07/03 11:48:44;;;;;;;;;;;26.80;99.90;;;;;;4953768;28;20020;-43
2022/07/03 11:51:10;;;;;;;18.67;8.73;;;26.80;99.90;;;;;;4956626;28;19934;-43
2022/07/03 11:53:38;;;;;;;28.15;9.20;;;26.80;99.90;;;;;;4956264;28;20058;-43
2022/07/03 11:56:06;;;;;;;24.30;9.80;;;26.80;99.90;;;;;;4956489;28;20027;-42
2022/07/03 11:58:42;;;;;;;30.42;11.40;;;26.90;99.90;;;;;;4956270;28;20383;-42
2022/07/03 12:01:10;;;;;;;40.20;18.45;;;26.90;99.90;;;;;;4956270;28;20453;-42
2022/07/03 12:03:35;;;;;;;28.02;8.63;;;26.90;99.90;;;;;;4956154;28;20505;-42
2022/07/03 12:06:01;;;;;;;23.80;8.20;;;27.00;99.90;;;;;;4956319;28;20054;-42
2022/07/03 12:08:32;;;;;;;25.77;8.23;;;27.00;99.90;;;;;;4956150;29;20485;-42
2022/07/03 12:11:05;;;;;;;26.55;7.85;;;27.00;99.90;;;;;;4956071;28;20032;-43
2022/07/03 12:13:33;;;;;;;23.23;8.73;;;27.10;99.90;;;;;;4955985;28;20023;-42
2022/07/03 12:16:05;;;;;;;;;;;27.10;99.90;;;;;;4956569;28;20027;-42
2022/07/03 12:18:41;;;;;;;28.73;9.52;;;27.20;99.90;;;;;;4955941;28;19930;-42
2022/07/03 12:21:08;;;;;;;32.10;13.40;;;27.10;99.90;;;;;;4955880;29;20417;-42
2022/07/03 12:23:55;;;;;;;34.10;12.50;;;27.10;99.90;;;;;;4955834;28;20027;-42
2022/07/03 12:26:36;;;;;;;39.42;19.95;;;27.10;99.90;;;;;;4955825;28;20034;-42
2022/07/03 12:29:10;;;;;;;29.48;14.15;;;27.10;99.90;;;;;;4955675;28;20036;-42
2022/07/03 12:31:40;;;;;;;20.83;7.38;;;27.10;99.90;;;;;;4955889;28;20386;-42
2022/07/03 12:34:06;;;;;;;25.05;7.00;;;27.20;99.90;;;;;;4955738;28;20022;-43
2022/07/03 12:36:32;;;;;;;25.45;9.10;;;27.20;99.90;;;;;;4955761;28;20031;-42
2022/07/03 12:38:59;;;;;;;21.38;8.52;;;27.20;99.90;;;;;;4955660;28;20034;-46
2022/07/03 12:41:26;;;;;;;29.67;9.10;;;27.20;99.90;;;;;;4955549;28;20106;-43
2022/07/03 12:43:53;;;;;;;26.25;9.27;;;27.20;99.90;;;;;;4955490;28;20036;-43
2022/07/03 12:46:34;;;;;;;30.03;8.50;;;27.20;99.90;;;;;;4955403;28;20339;-43
2022/07/03 12:49:11;;;;;;;29.73;12.93;;;27.20;99.90;;;;;;4955527;28;20111;-43
2022/07/03 12:51:49;;;;;;;26.65;9.57;;;27.10;99.90;;;;;;4955702;28;20086;-44
2022/07/03 12:54:21;;;;;;;20.45;7.70;;;27.20;99.90;;;;;;4955687;28;20023;-43
2022/07/03 12:59:16;;;;;;;24.52;8.02;;;27.20;99.90;;;;;;4955272;29;20082;-43
2022/07/03 13:00:07;;;;;;;29.20;10.23;;;27.20;99.90;;;;;;4955066;29;20413;-43
2022/07/03 13:02:34;;;;;;;24.23;11.90;;;27.20;99.90;;;;;;4954882;28;20106;-42
2022/07/03 13:05:12;;;;;;;24.95;9.48;;;27.30;99.90;;;;;;4955193;28;20046;-43
2022/07/03 13:07:40;;;;;;;21.13;7.50;;;27.20;99.90;;;;;;4955325;28;20055;-42
2022/07/03 13:10:06;;;;;;;22.00;7.78;;;27.30;99.90;;;;;;4955199;28;20039;-42